createdAt,value
2022-10-30T00:01:40.043Z,10.50
2022-10-30T00:04:42.585Z,9.43
2022-10-30T00:07:45.075Z,9.43
2022-10-30T00:10:50.139Z,9.60
2022-10-30T00:13:53.966Z,9.07
2022-10-30T00:16:56.462Z,8.33
2022-10-30T00:19:58.988Z,9.13
2022-10-30T00:23:01.681Z,9.53
2022-10-30T00:26:05.362Z,9.70
2022-10-30T00:29:09.180Z,9.30
2022-10-30T00:32:11.822Z,8.83
2022-10-30T00:35:14.340Z,8.63
2022-10-30T00:38:16.857Z,8.50
2022-10-30T00:41:22.982Z,9.47
2022-10-30T00:44:45.945Z,9.13
2022-10-30T00:47:53.777Z,9.40
2022-10-30T00:50:57.983Z,7.93
2022-10-30T00:54:03.849Z,8.53
2022-10-30T00:57:08.882Z,8.47
2022-10-30T01:00:14.539Z,8.13
2022-10-30T01:03:19.543Z,9.00
2022-10-30T01:06:23.477Z,8.60
2022-10-30T01:09:26.046Z,8.97
2022-10-30T01:12:28.827Z,8.73
2022-10-30T01:15:37.385Z,9.10
2022-10-30T01:18:49.251Z,8.97
2022-10-30T01:22:07.837Z,8.33
2022-10-30T01:25:23.791Z,7.93
2022-10-30T01:28:36.404Z,8.93
2022-10-30T01:31:52.824Z,8.40
2022-10-30T01:35:00.657Z,8.10
2022-10-30T01:38:07.903Z,7.83
2022-10-30T01:41:10.427Z,8.70
2022-10-30T01:44:18.213Z,8.30
2022-10-30T01:47:33.930Z,8.07
2022-10-30T01:50:48.431Z,8.30
2022-10-30T01:53:59.974Z,7.97
2022-10-30T01:57:09.173Z,7.90
2022-10-30T02:00:13.528Z,7.80
2022-10-30T02:03:17.400Z,7.67
2022-10-30T02:06:20.120Z,7.73
2022-10-30T02:09:22.789Z,8.13
2022-10-30T02:12:26.402Z,7.77
2022-10-30T02:15:29.099Z,7.83
2022-10-30T02:18:32.970Z,7.40
2022-10-30T02:21:36.846Z,8.03
2022-10-30T02:24:39.552Z,7.73
2022-10-30T02:27:42.312Z,7.43
2022-10-30T02:30:44.928Z,7.60
2022-10-30T02:33:48.317Z,7.80
2022-10-30T02:36:52.107Z,7.43
2022-10-30T02:39:54.622Z,7.13
2022-10-30T02:42:57.117Z,7.20
2022-10-30T02:45:59.761Z,7.03
2022-10-30T02:49:02.808Z,7.20
2022-10-30T02:52:07.606Z,7.10
2022-10-30T02:55:10.680Z,7.73
2022-10-30T02:58:13.152Z,7.50
2022-10-30T03:01:17.506Z,7.07
2022-10-30T03:04:20.061Z,7.50
2022-10-30T03:07:23.940Z,6.90
2022-10-30T03:10:26.460Z,7.90
2022-10-30T03:13:30.479Z,7.60
2022-10-30T03:16:33.548Z,7.17
2022-10-30T03:19:36.548Z,7.07
2022-10-30T03:22:40.389Z,6.30
2022-10-30T03:25:42.874Z,7.60
2022-10-30T03:28:45.977Z,7.17
2022-10-30T03:31:48.468Z,7.00
2022-10-30T03:34:50.937Z,7.30
2022-10-30T03:37:54.761Z,7.50
2022-10-30T03:40:57.514Z,7.13
2022-10-30T03:44:00.262Z,6.83
2022-10-30T03:47:02.777Z,7.93
2022-10-30T03:50:05.872Z,6.87
2022-10-30T03:53:09.790Z,7.73
2022-10-30T03:56:12.444Z,7.07
2022-10-30T03:59:14.930Z,7.53
2022-10-30T04:02:17.516Z,7.47
2022-10-30T04:05:22.565Z,7.30
2022-10-30T04:08:26.384Z,7.73
2022-10-30T04:11:28.944Z,7.50
2022-10-30T04:14:31.457Z,7.80
2022-10-30T04:17:34.251Z,6.80
2022-10-30T04:20:36.801Z,7.70
2022-10-30T04:23:40.640Z,7.37
2022-10-30T04:26:43.121Z,7.23
2022-10-30T04:29:46.641Z,7.17
2022-10-30T04:32:49.854Z,7.00
2022-10-30T04:35:52.435Z,6.83
2022-10-30T04:38:56.247Z,7.50
2022-10-30T04:41:58.780Z,7.30
2022-10-30T04:45:04.984Z,6.80
2022-10-30T04:48:09.283Z,7.33
2022-10-30T04:51:12.602Z,7.03
2022-10-30T04:54:16.414Z,7.07
2022-10-30T04:57:18.905Z,7.33
2022-10-30T05:00:21.400Z,7.00
2022-10-30T05:03:25.414Z,7.13
2022-10-30T05:06:30.798Z,7.00
2022-10-30T05:09:34.659Z,6.60
2022-10-30T05:12:37.131Z,7.13
2022-10-30T05:15:39.676Z,6.97
2022-10-30T05:18:42.152Z,6.73
2022-10-30T05:21:44.636Z,6.67
2022-10-30T05:24:48.437Z,7.00
2022-10-30T05:27:50.927Z,7.83
2022-10-30T05:30:53.742Z,7.40
2022-10-30T05:33:56.233Z,6.47
2022-10-30T05:36:58.696Z,7.10
2022-10-30T05:40:02.574Z,6.93
2022-10-30T05:43:06.073Z,7.57
2022-10-30T05:46:08.628Z,6.70
2022-10-30T05:49:11.140Z,6.87
2022-10-30T05:52:13.653Z,7.37
2022-10-30T05:55:17.462Z,7.23
2022-10-30T05:58:19.953Z,6.70
2022-10-30T06:01:22.745Z,6.93
2022-10-30T06:04:25.307Z,7.10
2022-10-30T06:07:27.789Z,7.07
2022-10-30T06:10:31.793Z,7.10
2022-10-30T06:13:34.289Z,7.20
2022-10-30T06:16:37.978Z,6.90
2022-10-30T06:19:40.475Z,6.80
2022-10-30T06:22:42.982Z,6.30
2022-10-30T06:25:47.119Z,7.00
2022-10-30T06:28:49.650Z,7.17
2022-10-30T06:31:52.149Z,6.97
2022-10-30T06:34:54.621Z,7.90
2022-10-30T06:38:00.048Z,8.03
2022-10-30T06:41:03.870Z,8.27
2022-10-30T06:44:06.431Z,8.53
2022-10-30T06:47:08.929Z,7.57
2022-10-30T06:50:12.992Z,8.20
2022-10-30T06:53:15.505Z,7.10
2022-10-30T06:56:19.321Z,7.13
2022-10-30T06:59:21.842Z,7.20
2022-10-30T07:02:24.383Z,7.50
2022-10-30T07:05:27.101Z,7.10
2022-10-30T07:08:29.602Z,7.27
2022-10-30T07:11:33.422Z,6.70
2022-10-30T07:14:36.568Z,6.83
2022-10-30T07:17:39.036Z,7.03
2022-10-30T07:20:41.624Z,7.27
2022-10-30T07:23:44.087Z,7.43
2022-10-30T07:26:47.904Z,7.70
2022-10-30T07:29:50.379Z,7.10
2022-10-30T07:33:01.246Z,6.87
2022-10-30T07:36:04.707Z,6.80
2022-10-30T07:39:07.305Z,7.13
2022-10-30T07:42:11.120Z,7.00
2022-10-30T07:45:13.603Z,7.57
2022-10-30T07:48:16.077Z,6.70
2022-10-30T07:51:18.566Z,7.13
2022-10-30T07:54:21.036Z,6.40
2022-10-30T07:57:24.981Z,7.87
2022-10-30T08:00:27.638Z,7.00
2022-10-30T08:03:30.554Z,7.30
2022-10-30T08:06:33.064Z,7.17
2022-10-30T08:09:35.522Z,7.83
2022-10-30T08:12:40.512Z,7.00
2022-10-30T08:15:43.377Z,7.13
2022-10-30T08:18:45.891Z,8.17
2022-10-30T08:21:48.384Z,7.60
2022-10-30T08:24:50.898Z,7.40
2022-10-30T08:27:56.549Z,7.50
2022-10-30T08:30:59.611Z,7.00
2022-10-30T08:34:02.143Z,7.03
2022-10-30T08:37:04.651Z,7.10
2022-10-30T08:40:08.921Z,6.63
2022-10-30T08:43:13.082Z,6.10
2022-10-30T08:46:15.581Z,7.47
2022-10-30T08:49:18.076Z,6.23
2022-10-30T08:52:20.620Z,6.07
2022-10-30T08:55:23.187Z,7.53
2022-10-30T08:58:27.014Z,6.47
2022-10-30T09:01:29.545Z,6.67
2022-10-30T09:04:32.108Z,6.27
2022-10-30T09:07:34.885Z,6.43
2022-10-30T09:10:37.353Z,5.77
2022-10-30T09:13:41.274Z,6.60
2022-10-30T09:16:43.733Z,6.63
2022-10-30T09:22:48.675Z,6.33
2022-10-30T09:25:51.140Z,6.33
2022-10-30T09:28:55.073Z,6.40
2022-10-30T09:31:57.754Z,7.10
2022-10-30T09:35:00.216Z,7.37
2022-10-30T09:38:02.968Z,6.83
2022-10-30T09:41:21.700Z,7.00
2022-10-30T09:44:36.970Z,6.97
2022-10-30T09:47:50.368Z,6.43
2022-10-30T09:51:01.745Z,6.53
2022-10-30T09:54:16.079Z,7.33
2022-10-30T09:57:30.041Z,7.23
2022-10-30T10:00:38.871Z,6.87
2022-10-30T10:03:56.733Z,6.80
2022-10-30T10:07:03.729Z,6.23
2022-10-30T10:10:11.780Z,7.20
2022-10-30T10:13:26.812Z,6.82
2022-10-30T10:16:35.213Z,8.05
2022-10-30T10:19:42.684Z,7.18
2022-10-30T10:22:49.616Z,6.10
2022-10-30T10:25:54.583Z,6.75
2022-10-30T10:29:11.335Z,7.10
2022-10-30T10:32:52.910Z,6.35
2022-10-30T10:36:06.611Z,5.70
2022-10-30T10:39:27.003Z,6.53
2022-10-30T10:42:40.873Z,6.72
2022-10-30T10:45:53.868Z,6.18
2022-10-30T10:49:14.600Z,6.15
2022-10-30T10:52:20.663Z,6.95
2022-10-30T10:55:27.653Z,6.53
2022-10-30T10:58:36.319Z,5.15
2022-10-30T11:01:41.026Z,5.80
2022-10-30T11:04:50.754Z,4.95
2022-10-30T11:07:58.123Z,5.78
2022-10-30T11:11:02.296Z,5.70
2022-10-30T11:14:14.878Z,5.82
2022-10-30T11:17:23.596Z,5.10
2022-10-30T11:20:35.736Z,5.90
2022-10-30T11:23:40.635Z,5.65
2022-10-30T11:26:43.645Z,5.97
2022-10-30T11:29:51.927Z,4.93
2022-10-30T11:32:56.980Z,5.40
2022-10-30T11:36:15.446Z,5.47
2022-10-30T11:39:20.113Z,6.22
2022-10-30T11:42:22.682Z,6.20
2022-10-30T11:45:27.684Z,6.00
2022-10-30T11:48:33.541Z,6.32
2022-10-30T11:51:40.490Z,6.03
2022-10-30T11:54:45.948Z,5.93
2022-10-30T11:57:51.756Z,5.40
2022-10-30T12:01:04.912Z,5.40
2022-10-30T12:04:23.499Z,5.60
2022-10-30T12:07:30.694Z,5.10
2022-10-30T12:10:37.534Z,6.07
2022-10-30T12:13:41.386Z,5.47
2022-10-30T12:16:48.245Z,6.85
2022-10-30T12:19:54.228Z,5.80
2022-10-30T12:22:59.152Z,5.78
2022-10-30T12:26:09.911Z,5.70
2022-10-30T12:29:17.561Z,5.95
2022-10-30T12:32:22.750Z,5.43
2022-10-30T12:35:38.415Z,5.47
2022-10-30T12:38:46.476Z,5.03
2022-10-30T12:41:58.538Z,6.03
2022-10-30T12:45:10.376Z,5.30
2022-10-30T12:48:19.127Z,5.10
2022-10-30T12:51:28.449Z,5.18
2022-10-30T12:54:38.140Z,5.47
2022-10-30T12:57:45.540Z,5.57
2022-10-30T13:00:55.632Z,5.55
2022-10-30T13:04:07.160Z,5.28
2022-10-30T13:07:19.467Z,5.13
2022-10-30T13:10:31.927Z,4.80
2022-10-30T13:13:37.871Z,4.85
2022-10-30T13:16:40.377Z,5.25
2022-10-30T13:19:45.401Z,5.43
2022-10-30T13:22:52.792Z,4.95
2022-10-30T13:26:08.869Z,5.43
2022-10-30T13:29:21.261Z,5.13
2022-10-30T13:32:32.107Z,5.07
2022-10-30T13:35:42.273Z,5.90
2022-10-30T13:38:52.740Z,5.63
2022-10-30T13:42:11.302Z,4.93
2022-10-30T13:45:40.619Z,5.32
2022-10-30T13:48:56.871Z,5.05
2022-10-30T13:52:05.665Z,4.82
2022-10-30T13:55:18.795Z,5.72
2022-10-30T13:58:30.029Z,5.40
2022-10-30T14:01:37.662Z,5.10
2022-10-30T14:04:49.579Z,5.35
2022-10-30T14:08:06.048Z,4.82
2022-10-30T14:11:13.617Z,4.90
2022-10-30T14:14:30.421Z,5.28
2022-10-30T14:17:32.916Z,5.10
2022-10-30T14:20:35.477Z,6.43
2022-10-30T14:23:39.217Z,5.35
2022-10-30T14:26:50.084Z,5.82
2022-10-30T14:29:57.066Z,5.50
2022-10-30T14:32:59.573Z,5.40
2022-10-30T14:36:19.826Z,5.43
2022-10-30T14:39:30.441Z,5.28
2022-10-30T14:42:40.889Z,5.72
2022-10-30T14:45:52.220Z,5.70
2022-10-30T14:49:04.811Z,5.75
2022-10-30T14:52:18.893Z,6.80
2022-10-30T14:55:31.816Z,6.25
2022-10-30T14:58:36.253Z,7.13
2022-10-30T15:01:49.883Z,6.38
2022-10-30T15:05:20.077Z,6.32
2022-10-30T15:08:48.005Z,6.72
2022-10-30T15:12:19.391Z,8.00
2022-10-30T15:15:22.541Z,7.87
2022-10-30T15:18:30.524Z,8.40
2022-10-30T15:21:42.154Z,9.10
2022-10-30T15:24:44.668Z,8.47
2022-10-30T15:27:48.641Z,7.80
2022-10-30T15:31:02.160Z,7.80
2022-10-30T15:34:22.597Z,7.90
2022-10-30T15:37:25.162Z,7.17
2022-10-30T15:40:28.739Z,7.50
2022-10-30T15:43:33.278Z,7.47
2022-10-30T15:46:36.071Z,6.77
2022-10-30T15:49:43.012Z,7.27
2022-10-30T15:52:45.546Z,6.93
2022-10-30T15:55:49.370Z,8.80
2022-10-30T15:58:54.816Z,6.60
2022-10-30T16:01:58.853Z,7.43
2022-10-30T16:05:02.896Z,7.13
2022-10-30T16:08:13.275Z,7.53
2022-10-30T16:11:16.595Z,7.57
2022-10-30T16:14:23.383Z,7.23
2022-10-30T16:17:27.601Z,7.10
2022-10-30T16:20:31.468Z,7.43
2022-10-30T16:23:39.302Z,7.87
2022-10-30T16:26:41.911Z,7.97
2022-10-30T16:29:46.680Z,7.73
2022-10-30T16:32:54.521Z,7.53
2022-10-30T16:35:59.564Z,8.17
2022-10-30T16:39:02.587Z,8.53
2022-10-30T16:42:05.662Z,8.67
2022-10-30T16:45:47.985Z,8.30
2022-10-30T16:48:57.569Z,7.80
2022-10-30T16:52:05.039Z,7.40
2022-10-30T16:55:10.005Z,7.87
2022-10-30T16:58:14.587Z,7.47
2022-10-30T17:01:17.514Z,8.10
2022-10-30T17:04:20.175Z,7.83
2022-10-30T17:07:26.322Z,8.40
2022-10-30T17:10:34.145Z,8.90
2022-10-30T17:13:38.218Z,9.37
2022-10-30T17:16:41.325Z,8.57
2022-10-30T17:19:48.542Z,9.13
2022-10-30T17:23:05.345Z,8.43
2022-10-30T17:26:12.504Z,9.33
2022-10-30T17:29:44.982Z,9.47
2022-10-30T17:32:53.497Z,9.37
2022-10-30T17:35:56.105Z,9.50
2022-10-30T17:38:59.937Z,9.03
2022-10-30T17:42:02.460Z,10.07
2022-10-30T17:45:06.991Z,9.07
2022-10-30T17:48:14.948Z,8.90
2022-10-30T17:51:18.921Z,8.73
2022-10-30T17:54:23.042Z,8.70
2022-10-30T17:57:27.009Z,9.60
2022-10-30T18:00:29.513Z,9.20
2022-10-30T18:03:32.097Z,10.40
2022-10-30T18:06:34.582Z,10.20
2022-10-30T18:09:39.035Z,10.40
2022-10-30T18:12:42.298Z,9.63
2022-10-30T18:15:48.946Z,11.57
2022-10-30T18:18:53.373Z,11.97
2022-10-30T18:21:55.859Z,12.13
2022-10-30T18:24:59.701Z,12.00
2022-10-30T18:28:02.218Z,12.00
2022-10-30T18:31:04.814Z,12.80
2022-10-30T18:34:15.161Z,11.37
2022-10-30T18:37:17.651Z,11.47
2022-10-30T18:40:22.713Z,11.23
2022-10-30T18:43:25.402Z,10.97
2022-10-30T18:46:29.098Z,11.07
2022-10-30T18:49:33.253Z,10.97
2022-10-30T18:52:35.728Z,11.50
2022-10-30T18:55:41.200Z,12.17
2022-10-30T18:58:43.703Z,11.47
2022-10-30T19:01:46.284Z,11.23
2022-10-30T19:04:48.837Z,12.87
2022-10-30T19:07:51.316Z,11.40
2022-10-30T19:10:57.996Z,11.47
2022-10-30T19:14:00.704Z,12.47
2022-10-30T19:17:03.258Z,11.87
2022-10-30T19:20:06.618Z,11.13
2022-10-30T19:23:15.064Z,11.53
2022-10-30T19:26:18.892Z,12.37
2022-10-30T19:29:21.371Z,13.07
2022-10-30T19:32:23.901Z,12.80
2022-10-30T19:35:27.177Z,12.00
2022-10-30T19:38:30.086Z,11.87
2022-10-30T19:41:33.936Z,11.50
2022-10-30T19:44:36.436Z,11.80
2022-10-30T19:47:39.051Z,11.50
2022-10-30T19:50:42.663Z,10.83
2022-10-30T19:53:45.141Z,10.77
2022-10-30T19:56:48.945Z,9.87
2022-10-30T19:59:51.426Z,10.27
2022-10-30T20:02:55.224Z,9.57
2022-10-30T20:05:57.720Z,11.30
2022-10-30T20:09:02.429Z,10.47
2022-10-30T20:12:07.006Z,10.50
2022-10-30T20:15:14.024Z,11.13
2022-10-30T20:18:18.712Z,10.03
2022-10-30T20:21:21.499Z,10.40
2022-10-30T20:24:24.356Z,9.60
2022-10-30T20:27:28.205Z,10.10
2022-10-30T20:30:31.154Z,9.97
2022-10-30T20:33:33.972Z,11.33
2022-10-30T20:36:36.461Z,10.97
2022-10-30T20:39:38.952Z,11.23
2022-10-30T20:42:43.264Z,10.73
2022-10-30T20:45:45.862Z,10.90
2022-10-30T20:48:48.915Z,10.90
2022-10-30T20:51:51.418Z,12.10
2022-10-30T20:54:53.916Z,12.63
2022-10-30T20:57:58.049Z,13.20
2022-10-30T21:01:00.866Z,13.93
2022-10-30T21:04:03.434Z,14.93
2022-10-30T21:07:05.932Z,15.27
2022-10-30T21:10:08.980Z,15.33
2022-10-30T21:13:12.841Z,12.97
2022-10-30T21:16:15.336Z,13.50
2022-10-30T21:19:17.854Z,13.60
2022-10-30T21:22:20.337Z,13.13
2022-10-30T21:25:22.871Z,13.00
2022-10-30T21:28:26.697Z,12.27
2022-10-30T21:31:29.264Z,12.83
2022-10-30T21:34:31.757Z,11.83
2022-10-30T21:37:35.590Z,11.77
2022-10-30T21:40:38.109Z,12.30
2022-10-30T21:43:41.949Z,11.77
2022-10-30T21:46:44.455Z,11.10
2022-10-30T21:49:46.911Z,11.23
2022-10-30T21:52:49.392Z,11.63
2022-10-30T21:55:51.869Z,12.03
2022-10-30T21:58:56.683Z,11.17
2022-10-30T22:01:59.231Z,11.90
2022-10-30T22:05:01.725Z,12.33
2022-10-30T22:08:04.245Z,12.33
2022-10-30T22:11:08.243Z,12.33
2022-10-30T22:14:12.277Z,11.93
2022-10-30T22:17:14.752Z,11.33
2022-10-30T22:20:17.548Z,12.20
2022-10-30T22:23:20.037Z,12.20
2022-10-30T22:26:24.008Z,11.87
2022-10-30T22:29:27.860Z,12.03
2022-10-30T22:32:30.346Z,12.80
2022-10-30T22:35:32.830Z,12.60
2022-10-30T22:38:36.093Z,11.13
2022-10-30T22:41:38.724Z,11.30
2022-10-30T22:44:42.604Z,12.13
2022-10-30T22:47:45.091Z,12.43
2022-10-30T22:50:47.576Z,12.67
2022-10-30T22:53:56.901Z,12.53
2022-10-30T22:56:59.395Z,12.80
2022-10-30T23:00:03.213Z,13.30
2022-10-30T23:03:05.773Z,13.20
2022-10-30T23:06:08.679Z,12.60
2022-10-30T23:09:16.944Z,11.80
2022-10-30T23:12:19.432Z,12.10
2022-10-30T23:15:23.713Z,12.07
2022-10-30T23:18:26.320Z,11.97
2022-10-30T23:21:30.859Z,12.13
2022-10-30T23:24:33.803Z,12.47
2022-10-30T23:27:36.620Z,12.00
2022-10-30T23:30:43.846Z,12.27
2022-10-30T23:33:47.528Z,13.60
2022-10-30T23:36:49.995Z,12.40
2022-10-30T23:39:52.481Z,12.80
2022-10-30T23:42:55.383Z,12.20
2022-10-30T23:45:59.290Z,12.33
2022-10-30T23:49:02.372Z,11.77
2022-10-30T23:52:04.994Z,12.77
2022-10-30T23:55:08.715Z,11.30
2022-10-30T23:58:11.262Z,10.87
